Pagrindinis puslapis
METAR-TAF:

METAR-TAF

Oro uostai :

Niamėjus, Nigeris

platuma: 13-29N, ilguma: 002-10E, Aukštis: 223 m

Dabartinis oras

Ataskaita buvo paskelbta 55 minutes, ne 00:00 UTC
Vėjas 3 kt iš Šiaurės
Temperatūra 31°C
Drėgmė 12%
Slėgis 1010 hPa
Matomumas: 8000 m

METAR: DRRN 290000Z 01003KT 8000 NSC 31/M02 Q1010 NOSIG

Laikas: 01:55 (00:55 UTC)

Prognozė

Ataskaita buvo paskelbta 1 valandą ir 55 minutes, ne 23:00 UTC
Prognozė galioja nuo 29 metu 00 UTC su 30 metu 06 UTC
Vėjas 5 kt iš Šiaurės
Matomumas: 8000 m
Laikinai
nuo 29 metu 06 UTC su 29 metu 08 UTC
Matomumas: 4000 m
dulkės
Tapsmas
nuo 29 metu 08 UTC su 29 metu 10 UTC
Laikinai
nuo 29 metu 17 UTC su 29 metu 20 UTC
Matomumas: 4000 m
dulkės

TAF: DRRN 282300Z 2900/3006 36005KT 8000 NSC TEMPO 2906/2908 4000 DU BECMG 2908/2910 8010KT TEMPO 2917/2920 4000 DU

Orai ataskaitas ir orų prognozės (METAR, TAF).

turimą stotys yra geltonos ir raudonos taškus žemėlapyje.

Perkelti pele per norėdami pamatyti stoties vardą.

Tada spustelėkite, norėdami matyti oro stebėjimo ir prognozės.

Norėdami pakeisti žemėlapį: spustelėkite ant žalios mygtukų su juodo kryžiaus žemyn,; žalią mygtuką su brūkšneliu, jei norite nutolinti; arba žalių rodyklių gretimoms žemėlapius.


METAR-TAF: